createdAt,value
2022-10-02T00:01:10.123Z,24.08
2022-10-02T00:03:38.819Z,21.20
2022-10-02T00:06:09.893Z,21.30
2022-10-02T00:08:39.084Z,27.75
2022-10-02T00:11:12.577Z,28.83
2022-10-02T00:13:41.310Z,29.40
2022-10-02T00:16:14.499Z,31.13
2022-10-02T00:18:41.328Z,27.65
2022-10-02T00:21:21.700Z,26.38
2022-10-02T00:23:51.461Z,28.83
2022-10-02T00:26:33.244Z,33.05
2022-10-02T00:29:02.881Z,29.63
2022-10-02T00:31:47.566Z,29.15
2022-10-02T00:34:32.924Z,32.67
2022-10-02T00:37:14.090Z,25.73
2022-10-02T00:39:52.985Z,27.77
2022-10-02T00:42:37.814Z,24.55
2022-10-02T00:45:22.754Z,24.88
2022-10-02T00:47:49.330Z,29.45
2022-10-02T00:50:18.002Z,20.38
2022-10-02T00:52:50.245Z,22.80
2022-10-02T00:55:29.059Z,25.73
2022-10-02T00:58:14.286Z,28.95
2022-10-02T01:00:45.113Z,31.52
2022-10-02T01:03:18.871Z,22.02
2022-10-02T01:05:45.527Z,24.50
2022-10-02T01:08:12.884Z,29.05
2022-10-02T01:10:39.541Z,28.75
2022-10-02T01:13:06.770Z,22.88
2022-10-02T01:15:38.220Z,23.60
2022-10-02T01:18:06.287Z,26.65
2022-10-02T01:20:32.722Z,23.52
2022-10-02T01:23:05.301Z,27.80
2022-10-02T01:25:32.058Z,25.10
2022-10-02T01:27:58.581Z,23.08
2022-10-02T01:30:25.281Z,20.30
2022-10-02T01:32:51.790Z,20.73
2022-10-02T01:35:20.266Z,30.73
2022-10-02T01:37:47.081Z,31.52
2022-10-02T01:40:23.932Z,24.83
2022-10-02T01:42:50.622Z,25.17
2022-10-02T01:45:17.344Z,28.88
2022-10-02T01:47:51.467Z,26.30
2022-10-02T01:50:26.197Z,29.17
2022-10-02T01:52:53.373Z,28.80
2022-10-02T01:55:19.791Z,25.85
2022-10-02T01:57:56.814Z,29.83
2022-10-02T02:00:25.701Z,24.23
2022-10-02T02:03:18.245Z,28.25
2022-10-02T02:05:51.142Z,27.10
2022-10-02T02:08:43.446Z,24.63
2022-10-02T02:11:21.106Z,27.23
2022-10-02T02:13:57.881Z,21.08
2022-10-02T02:16:24.339Z,31.13
2022-10-02T02:18:53.896Z,31.67
2022-10-02T02:21:23.616Z,22.80
2022-10-02T02:23:50.744Z,28.98
2022-10-02T02:26:18.811Z,25.55
2022-10-02T02:28:48.804Z,26.55
2022-10-02T02:31:17.464Z,26.27
2022-10-02T02:33:46.239Z,28.27
2022-10-02T02:36:16.755Z,43.05
2022-10-02T02:38:48.718Z,24.27
2022-10-02T02:41:18.073Z,30.33
2022-10-02T02:43:46.640Z,26.63
2022-10-02T02:46:25.436Z,28.80
2022-10-02T02:48:55.352Z,29.67
2022-10-02T02:51:23.665Z,22.08
2022-10-02T02:53:50.069Z,22.48
2022-10-02T02:56:17.719Z,27.70
2022-10-02T02:59:03.102Z,26.38
2022-10-02T03:01:29.919Z,31.35
2022-10-02T03:03:56.505Z,28.15
2022-10-02T03:06:34.503Z,27.63
2022-10-02T03:09:02.085Z,21.27
2022-10-02T03:11:28.543Z,27.85
2022-10-02T03:14:01.370Z,21.65
2022-10-02T03:16:30.925Z,25.27
2022-10-02T03:19:11.079Z,23.20
2022-10-02T03:21:56.728Z,31.63
2022-10-02T03:24:31.627Z,32.33
2022-10-02T03:27:04.228Z,29.67
2022-10-02T03:29:37.011Z,25.83
2022-10-02T03:32:04.674Z,28.73
2022-10-02T03:34:32.473Z,42.25
2022-10-02T03:36:59.510Z,40.95
2022-10-02T03:39:26.434Z,19.92
2022-10-02T03:41:53.448Z,31.83
2022-10-02T03:44:19.967Z,17.80
2022-10-02T03:46:46.509Z,20.00
2022-10-02T03:49:13.028Z,26.63
2022-10-02T03:51:39.476Z,31.08
2022-10-02T03:54:16.512Z,21.70
2022-10-02T03:56:56.759Z,16.40
2022-10-02T03:59:41.071Z,14.88
2022-10-02T04:02:12.567Z,30.33
2022-10-02T04:04:42.263Z,14.90
2022-10-02T04:07:12.922Z,36.95
2022-10-02T04:09:46.462Z,7.18
2022-10-02T04:12:19.202Z,12.40
2022-10-02T04:14:54.289Z,18.30
2022-10-02T04:17:26.742Z,12.75
2022-10-02T04:19:56.422Z,24.23
2022-10-02T04:22:29.010Z,10.90
2022-10-02T04:24:59.199Z,14.73
2022-10-02T04:27:40.806Z,38.17
2022-10-02T04:30:10.998Z,32.05
2022-10-02T04:32:37.812Z,36.08
2022-10-02T04:35:14.929Z,38.92
2022-10-02T04:37:50.623Z,48.75
2022-10-02T04:40:27.619Z,59.30
2022-10-02T04:42:54.026Z,41.75
2022-10-02T04:45:31.422Z,54.63
2022-10-02T04:48:06.460Z,52.50
2022-10-02T04:50:39.063Z,33.05
2022-10-02T04:53:14.589Z,58.47
2022-10-02T04:55:46.969Z,47.30
2022-10-02T04:58:22.822Z,36.92
2022-10-02T05:00:58.459Z,59.22
2022-10-02T05:03:45.179Z,37.25
2022-10-02T05:06:21.190Z,43.63
2022-10-02T05:08:54.575Z,48.42
2022-10-02T05:11:28.266Z,65.05
2022-10-02T05:14:14.937Z,63.83
2022-10-02T05:16:57.573Z,46.13
2022-10-02T05:19:24.020Z,43.03
2022-10-02T05:22:05.920Z,33.40
2022-10-02T05:24:44.161Z,65.13
2022-10-02T05:27:16.535Z,55.78
2022-10-02T05:29:52.964Z,45.13
2022-10-02T05:32:31.985Z,73.32
2022-10-02T05:35:01.496Z,50.67
2022-10-02T05:37:27.928Z,65.78
2022-10-02T05:40:00.727Z,31.33
2022-10-02T05:42:34.466Z,91.28
2022-10-02T05:45:02.599Z,89.25
2022-10-02T05:47:30.443Z,81.28
2022-10-02T05:50:11.925Z,87.82
2022-10-02T05:52:46.003Z,37.88
2022-10-02T05:55:16.515Z,51.78
2022-10-02T05:58:04.501Z,41.05
2022-10-02T06:00:37.822Z,59.60
2022-10-02T06:03:06.013Z,65.88
2022-10-02T06:05:49.620Z,50.78
2022-10-02T06:08:18.072Z,55.33
2022-10-02T06:10:52.871Z,49.80
2022-10-02T06:13:46.769Z,53.03
2022-10-02T06:16:34.931Z,63.50
2022-10-02T06:19:12.228Z,71.03
2022-10-02T06:21:57.643Z,68.65
2022-10-02T06:24:28.997Z,58.70
2022-10-02T06:27:01.072Z,58.28
2022-10-02T06:29:34.536Z,75.60
2022-10-02T06:32:04.437Z,53.20
2022-10-02T06:34:30.939Z,48.38
2022-10-02T06:37:18.173Z,29.73
2022-10-02T06:39:48.858Z,57.83
2022-10-02T06:42:15.250Z,50.88
2022-10-02T06:44:49.001Z,41.45
2022-10-02T06:47:39.069Z,59.10
2022-10-02T06:50:15.078Z,54.25
2022-10-02T06:52:41.549Z,49.05
2022-10-02T06:55:09.198Z,47.10
2022-10-02T06:57:38.858Z,55.63
2022-10-02T07:00:16.387Z,35.58
2022-10-02T07:02:52.728Z,57.35
2022-10-02T07:05:38.055Z,45.20
2022-10-02T07:08:23.471Z,47.83
2022-10-02T07:10:58.777Z,60.22
2022-10-02T07:13:32.567Z,49.95
2022-10-02T07:16:25.678Z,62.88
2022-10-02T07:19:11.204Z,47.28
2022-10-02T07:21:48.747Z,40.40
2022-10-02T07:24:15.158Z,49.38
2022-10-02T07:26:46.859Z,58.03
2022-10-02T07:29:20.240Z,64.30
2022-10-02T07:31:50.172Z,62.72
2022-10-02T07:34:22.016Z,45.85
2022-10-02T07:36:48.493Z,42.58
2022-10-02T07:39:17.978Z,65.93
2022-10-02T07:41:44.507Z,48.72
2022-10-02T07:44:17.137Z,39.85
2022-10-02T07:46:46.561Z,51.95
2022-10-02T07:49:13.023Z,71.82
2022-10-02T07:51:49.098Z,62.15
2022-10-02T07:54:34.374Z,64.72
2022-10-02T07:57:18.727Z,36.17
2022-10-02T07:59:46.448Z,59.13
2022-10-02T08:02:22.477Z,42.10
2022-10-02T08:04:50.164Z,65.88
2022-10-02T08:07:16.649Z,54.60
2022-10-02T08:09:48.388Z,42.85
2022-10-02T08:12:33.636Z,54.67
2022-10-02T08:15:02.829Z,52.72
2022-10-02T08:17:35.579Z,51.58
2022-10-02T08:20:14.816Z,56.55
2022-10-02T08:22:51.387Z,51.58
2022-10-02T08:25:30.331Z,49.88
2022-10-02T08:27:59.186Z,43.30
2022-10-02T08:30:25.821Z,42.97
2022-10-02T08:32:53.226Z,34.33
2022-10-02T08:35:20.148Z,29.20
2022-10-02T08:37:50.001Z,51.33
2022-10-02T08:40:36.707Z,42.20
2022-10-02T08:43:24.058Z,41.80
2022-10-02T08:46:13.063Z,43.65
2022-10-02T08:48:58.576Z,39.72
2022-10-02T08:51:44.880Z,35.53
2022-10-02T08:54:30.321Z,30.33
2022-10-02T08:57:12.594Z,36.50
2022-10-02T08:59:53.198Z,30.02
2022-10-02T09:02:54.903Z,51.95
2022-10-02T09:05:40.637Z,35.30
2022-10-02T09:08:26.342Z,33.13
2022-10-02T09:11:04.884Z,33.03
2022-10-02T09:13:52.694Z,28.10
2022-10-02T09:16:33.130Z,27.65
2022-10-02T09:19:03.954Z,32.28
2022-10-02T09:21:36.567Z,38.58
2022-10-02T09:24:21.772Z,37.13
2022-10-02T09:26:53.953Z,38.50
2022-10-02T09:29:20.394Z,37.80
2022-10-02T09:32:06.785Z,34.85
2022-10-02T09:34:55.070Z,28.35
2022-10-02T09:37:38.242Z,22.02
2022-10-02T09:40:28.370Z,16.75
2022-10-02T09:43:10.154Z,15.80
2022-10-02T09:45:45.237Z,21.10
2022-10-02T09:48:30.565Z,20.80
2022-10-02T09:51:00.152Z,20.88
2022-10-02T09:53:35.721Z,21.45
2022-10-02T09:56:08.166Z,23.52
2022-10-02T09:58:50.352Z,17.27
2022-10-02T10:01:23.190Z,21.77
2022-10-02T10:04:02.485Z,21.05
2022-10-02T10:06:48.933Z,17.83
2022-10-02T10:09:30.028Z,19.20
2022-10-02T10:12:05.860Z,18.50
2022-10-02T10:14:41.270Z,14.23
2022-10-02T10:17:10.837Z,12.60
2022-10-02T10:19:37.412Z,18.08
2022-10-02T10:22:09.917Z,18.42
2022-10-02T10:24:43.528Z,17.17
2022-10-02T10:27:21.982Z,17.50
2022-10-02T10:30:04.252Z,12.85
2022-10-02T10:32:47.321Z,17.73
2022-10-02T10:35:36.531Z,14.90
2022-10-02T10:38:34.535Z,18.15
2022-10-02T10:41:17.475Z,15.32
2022-10-02T10:44:03.203Z,14.07
2022-10-02T10:46:35.796Z,14.55
2022-10-02T10:49:21.777Z,15.35
2022-10-02T10:51:59.553Z,20.63
2022-10-02T10:54:33.522Z,16.98
2022-10-02T10:57:15.285Z,17.17
2022-10-02T10:59:54.150Z,19.30
2022-10-02T11:02:40.621Z,18.83
2022-10-02T11:05:13.415Z,14.45
2022-10-02T11:07:45.567Z,13.80
2022-10-02T11:10:16.259Z,17.02
2022-10-02T11:12:44.653Z,15.43
2022-10-02T11:15:29.747Z,16.52
2022-10-02T11:18:06.471Z,14.55
2022-10-02T11:20:38.945Z,17.05
2022-10-02T11:23:26.985Z,13.38
2022-10-02T11:26:05.389Z,13.52
2022-10-02T11:28:51.367Z,15.27
2022-10-02T11:31:26.781Z,9.48
2022-10-02T11:34:12.887Z,14.77
2022-10-02T11:36:42.662Z,12.48
2022-10-02T11:39:20.798Z,17.48
2022-10-02T11:41:49.986Z,14.38
2022-10-02T11:44:29.404Z,13.77
2022-10-02T11:47:01.313Z,13.85
2022-10-02T11:49:46.552Z,12.80
2022-10-02T11:52:28.531Z,14.13
2022-10-02T11:55:13.892Z,11.23
2022-10-02T11:57:49.218Z,15.88
2022-10-02T12:00:38.877Z,11.10
2022-10-02T12:03:23.939Z,11.45
2022-10-02T12:05:56.590Z,9.68
2022-10-02T12:08:34.377Z,14.57
2022-10-02T12:11:13.250Z,12.75
2022-10-02T12:13:54.647Z,10.35
2022-10-02T12:16:36.396Z,13.63
2022-10-02T12:19:18.375Z,10.30
2022-10-02T12:22:06.674Z,12.35
2022-10-02T12:25:00.751Z,12.52
2022-10-02T12:27:46.205Z,11.45
2022-10-02T12:30:15.171Z,9.07
2022-10-02T12:32:49.737Z,9.20
2022-10-02T12:35:17.919Z,9.45
2022-10-02T12:38:08.628Z,11.27
2022-10-02T12:41:00.102Z,11.40
2022-10-02T12:43:45.464Z,10.35
2022-10-02T12:46:19.296Z,9.43
2022-10-02T12:49:02.469Z,11.68
2022-10-02T12:51:33.438Z,9.18
2022-10-02T12:54:08.513Z,9.45
2022-10-02T12:56:53.960Z,9.27
2022-10-02T12:59:20.411Z,8.90
2022-10-02T13:02:07.513Z,13.50
2022-10-02T13:04:52.961Z,13.40
2022-10-02T13:07:37.662Z,9.13
2022-10-02T13:10:19.336Z,10.65
2022-10-02T13:13:06.520Z,12.13
2022-10-02T13:15:39.249Z,10.93
2022-10-02T13:18:08.705Z,9.60
2022-10-02T13:20:45.093Z,11.20
2022-10-02T13:23:19.009Z,11.25
2022-10-02T13:25:53.410Z,12.18
2022-10-02T13:28:22.962Z,7.32
2022-10-02T13:30:49.485Z,10.38
2022-10-02T13:33:16.033Z,8.52
2022-10-02T13:36:01.609Z,9.30
2022-10-02T13:38:33.931Z,13.45
2022-10-02T13:41:07.641Z,9.43
2022-10-02T13:43:46.743Z,10.07
2022-10-02T13:46:21.284Z,11.27
2022-10-02T13:48:55.029Z,9.05
2022-10-02T13:51:24.591Z,9.02
2022-10-02T13:54:11.270Z,12.00
2022-10-02T13:56:43.306Z,18.67
2022-10-02T13:59:12.853Z,12.10
2022-10-02T14:01:52.587Z,11.10
2022-10-02T14:04:35.644Z,10.55
2022-10-02T14:07:05.366Z,8.73
2022-10-02T14:09:41.795Z,9.45
2022-10-02T14:12:27.730Z,8.20
2022-10-02T14:14:57.215Z,10.75
2022-10-02T14:18:02.727Z,10.55
2022-10-02T14:20:37.909Z,7.72
2022-10-02T14:23:16.389Z,11.57
2022-10-02T14:26:06.215Z,12.25
2022-10-02T14:28:39.328Z,14.40
2022-10-02T14:31:21.252Z,9.30
2022-10-02T14:33:50.834Z,8.95
2022-10-02T14:36:20.245Z,13.68
2022-10-02T14:39:05.586Z,12.45
2022-10-02T14:41:49.181Z,10.02
2022-10-02T14:44:22.206Z,10.65
2022-10-02T14:47:10.898Z,14.38
2022-10-02T14:49:58.407Z,12.25
2022-10-02T14:52:32.060Z,6.95
2022-10-02T14:54:59.365Z,12.85
2022-10-02T14:57:27.112Z,12.63
2022-10-02T15:00:13.778Z,9.93
2022-10-02T15:02:42.832Z,10.70
2022-10-02T15:05:12.972Z,10.93
2022-10-02T15:07:40.157Z,7.15
2022-10-02T15:10:07.581Z,10.40
2022-10-02T15:12:44.392Z,10.43
2022-10-02T15:15:19.870Z,11.43
2022-10-02T15:18:05.767Z,8.98
2022-10-02T15:20:47.165Z,8.68
2022-10-02T15:23:24.412Z,8.95
2022-10-02T15:25:57.353Z,12.35
2022-10-02T15:28:36.251Z,9.88
2022-10-02T15:31:22.530Z,14.60
2022-10-02T15:34:07.722Z,10.20
2022-10-02T15:36:54.176Z,14.32
2022-10-02T15:39:39.836Z,11.32
2022-10-02T15:42:09.207Z,11.38
2022-10-02T15:44:35.618Z,12.88
2022-10-02T15:47:17.592Z,11.07
2022-10-02T15:49:53.284Z,12.68
2022-10-02T15:52:39.879Z,13.00
2022-10-02T15:55:19.900Z,9.63
2022-10-02T15:57:46.424Z,9.45
2022-10-02T16:00:18.566Z,12.68
2022-10-02T16:02:48.392Z,9.15
2022-10-02T16:05:20.908Z,11.23
2022-10-02T16:07:56.809Z,9.82
2022-10-02T16:10:31.998Z,7.82
2022-10-02T16:13:17.046Z,10.43
2022-10-02T16:16:02.812Z,8.00
2022-10-02T16:18:29.353Z,10.05
2022-10-02T16:21:06.711Z,10.38
2022-10-02T16:23:33.159Z,9.68
2022-10-02T16:25:59.640Z,10.30
2022-10-02T16:28:36.659Z,8.05
2022-10-02T16:31:03.130Z,12.70
2022-10-02T16:33:48.307Z,11.18
2022-10-02T16:36:34.649Z,10.07
2022-10-02T16:39:14.463Z,13.50
2022-10-02T16:41:58.484Z,9.65
2022-10-02T16:44:36.662Z,10.65
2022-10-02T16:47:23.519Z,9.38
2022-10-02T16:49:54.007Z,8.80
2022-10-02T16:52:23.502Z,7.78
2022-10-02T16:54:53.312Z,8.35
2022-10-02T16:57:19.749Z,13.40
2022-10-02T16:59:51.697Z,8.82
2022-10-02T17:02:21.179Z,9.32
2022-10-02T17:05:06.303Z,9.45
2022-10-02T17:07:32.771Z,11.77
2022-10-02T17:10:19.202Z,13.43
2022-10-02T17:12:46.362Z,13.48
2022-10-02T17:15:12.786Z,10.68
2022-10-02T17:17:42.251Z,10.73
2022-10-02T17:20:20.853Z,11.63
2022-10-02T17:22:50.278Z,12.05
2022-10-02T17:25:23.093Z,7.30
2022-10-02T17:27:53.116Z,15.07
2022-10-02T17:30:24.107Z,5.93
2022-10-02T17:33:05.617Z,11.07
2022-10-02T17:35:34.268Z,6.20
2022-10-02T17:38:00.692Z,8.65
2022-10-02T17:40:31.110Z,7.72
2022-10-02T17:43:05.243Z,8.82
2022-10-02T17:46:03.043Z,7.63
2022-10-02T17:48:42.072Z,8.77
2022-10-02T17:51:32.583Z,8.07
2022-10-02T17:54:27.037Z,8.93
2022-10-02T17:57:01.701Z,7.43
2022-10-02T17:59:40.715Z,9.15
2022-10-02T18:02:25.387Z,14.55
2022-10-02T18:05:16.277Z,8.20
2022-10-02T18:07:42.743Z,7.20
2022-10-02T18:10:24.670Z,11.13
2022-10-02T18:12:57.179Z,7.75
2022-10-02T18:15:26.904Z,7.65
2022-10-02T18:18:11.669Z,10.23
2022-10-02T18:20:50.138Z,9.63
2022-10-02T18:23:23.665Z,9.98
2022-10-02T18:25:53.134Z,8.13
2022-10-02T18:28:22.631Z,10.77
2022-10-02T18:31:02.985Z,11.35
2022-10-02T18:33:30.085Z,7.15
2022-10-02T18:36:20.063Z,8.10
2022-10-02T18:39:06.754Z,6.40
2022-10-02T18:41:44.851Z,6.75
2022-10-02T18:44:30.069Z,10.30
2022-10-02T18:47:02.516Z,10.68
2022-10-02T18:49:29.000Z,10.63
2022-10-02T18:51:55.889Z,6.38
2022-10-02T18:54:28.870Z,10.57
2022-10-02T18:57:07.716Z,8.07
2022-10-02T18:59:44.788Z,7.57
2022-10-02T19:02:30.353Z,8.65
2022-10-02T19:04:59.827Z,11.43
2022-10-02T19:07:41.140Z,11.98
2022-10-02T19:10:47.958Z,8.07
2022-10-02T19:13:21.702Z,9.52
2022-10-02T19:15:50.545Z,6.88
2022-10-02T19:18:18.645Z,10.43
2022-10-02T19:20:45.079Z,8.93
2022-10-02T19:23:17.403Z,9.43
2022-10-02T19:25:46.254Z,14.38
2022-10-02T19:28:15.697Z,5.28
2022-10-02T19:30:46.293Z,11.23
2022-10-02T19:33:17.832Z,8.52
2022-10-02T19:35:44.415Z,9.63
2022-10-02T19:38:16.119Z,7.43
2022-10-02T19:40:42.616Z,11.20
2022-10-02T19:43:26.276Z,8.32
2022-10-02T19:45:56.790Z,7.65
2022-10-02T19:48:25.680Z,10.82
2022-10-02T19:51:02.975Z,9.38
2022-10-02T19:53:33.326Z,13.93
2022-10-02T19:56:24.351Z,8.10
2022-10-02T19:58:53.387Z,7.18
2022-10-02T20:01:27.595Z,10.70
2022-10-02T20:03:58.660Z,8.32
2022-10-02T20:06:26.710Z,12.43
2022-10-02T20:09:03.414Z,13.10
2022-10-02T20:11:39.926Z,8.93
2022-10-02T20:14:19.385Z,12.68
2022-10-02T20:17:04.501Z,10.60
2022-10-02T20:19:32.530Z,11.23
2022-10-02T20:22:00.143Z,11.60
2022-10-02T20:24:30.710Z,13.50
2022-10-02T20:27:01.241Z,10.38
2022-10-02T20:29:31.526Z,10.30
2022-10-02T20:32:30.308Z,17.83
2022-10-02T20:35:02.522Z,12.23
2022-10-02T20:37:31.166Z,13.43
2022-10-02T20:40:02.584Z,10.13
2022-10-02T20:42:32.168Z,12.82
2022-10-02T20:44:58.640Z,12.93
2022-10-02T20:47:31.366Z,11.90
2022-10-02T20:49:59.414Z,12.55
2022-10-02T20:52:35.978Z,19.83
2022-10-02T20:55:21.572Z,12.77
2022-10-02T20:58:01.719Z,15.32
2022-10-02T21:00:33.657Z,13.13
2022-10-02T21:03:03.252Z,10.20
2022-10-02T21:05:38.889Z,11.02
2022-10-02T21:08:31.627Z,9.60
2022-10-02T21:10:58.803Z,12.40
2022-10-02T21:13:44.902Z,9.70
2022-10-02T21:16:30.185Z,18.70
2022-10-02T21:19:03.848Z,119.03
2022-10-02T21:21:53.742Z,11.48
2022-10-02T21:24:23.200Z,13.25
2022-10-02T21:27:08.637Z,10.88
2022-10-02T21:29:38.926Z,15.00
2022-10-02T21:32:25.025Z,12.95
2022-10-02T21:34:54.536Z,12.90
2022-10-02T21:37:35.837Z,12.82
2022-10-02T21:40:28.665Z,14.00
2022-10-02T21:42:58.263Z,88.97
2022-10-02T21:45:43.560Z,14.82
2022-10-02T21:48:28.879Z,13.90
2022-10-02T21:51:22.279Z,10.63
2022-10-02T21:54:07.633Z,16.10
2022-10-02T21:56:43.235Z,11.48
2022-10-02T21:59:09.677Z,15.85
2022-10-02T22:02:08.370Z,15.48
2022-10-02T22:04:55.983Z,13.00
2022-10-02T22:07:36.452Z,15.27
2022-10-02T22:10:06.034Z,20.08
2022-10-02T22:12:36.362Z,14.55
2022-10-02T22:15:19.666Z,19.77
2022-10-02T22:18:08.508Z,16.75
2022-10-02T22:20:42.453Z,18.65
2022-10-02T22:23:11.920Z,20.15
2022-10-02T22:25:44.271Z,12.88
2022-10-02T22:28:29.691Z,10.65
2022-10-02T22:30:56.199Z,13.02
2022-10-02T22:33:37.824Z,17.50
2022-10-02T22:36:04.433Z,13.15
2022-10-02T22:38:38.632Z,10.45
2022-10-02T22:41:08.071Z,12.77
2022-10-02T22:43:49.185Z,9.80
2022-10-02T22:46:18.695Z,9.73
2022-10-02T22:48:49.501Z,9.13
2022-10-02T22:51:25.767Z,12.73
2022-10-02T22:54:18.749Z,11.65
2022-10-02T22:56:57.856Z,10.68
2022-10-02T22:59:36.761Z,12.18
2022-10-02T23:02:06.690Z,13.52
2022-10-02T23:04:37.601Z,24.77
2022-10-02T23:07:13.735Z,14.05
2022-10-02T23:09:52.547Z,13.57
2022-10-02T23:12:28.079Z,20.10
2022-10-02T23:15:14.300Z,10.85
2022-10-02T23:18:10.423Z,11.65
2022-10-02T23:20:42.831Z,22.98
2022-10-02T23:23:24.857Z,10.18
2022-10-02T23:25:51.539Z,14.68
2022-10-02T23:28:22.468Z,11.45
2022-10-02T23:30:51.583Z,15.40
2022-10-02T23:33:26.025Z,11.15
2022-10-02T23:36:01.179Z,15.05
2022-10-02T23:38:37.500Z,11.95
2022-10-02T23:41:36.795Z,9.63
2022-10-02T23:44:09.922Z,14.52
2022-10-02T23:46:45.335Z,15.98
2022-10-02T23:49:12.875Z,13.73
2022-10-02T23:51:39.534Z,12.82
2022-10-02T23:54:15.453Z,12.13
2022-10-02T23:56:41.970Z,11.13
2022-10-02T23:59:08.422Z,11.27
